Mar Lin, Pennsylvania
Current Conditions -  °F | °C
As of 12:58 AM on Saturday 20 Dec 2014 (Local Time) from KMUI Reporting Station
Overcast Overcast  
Wind Chill: 27°   Ceiling: 3600
Heat Index: 32°   Visibility: 10mi
Dew Point: 20°   Wind: 5mph
Humidity: 62%   Direction: NA
Pressure: 30.19"   Gusts: NA
Location:  40.68°N, 76.24°W
Report Text: KMUI 200558Z AUTO VRB04KT 10SM OVC036 00/M07 A3019 RMK AO2 SLP231 T10011067 10013 21001 58006
Loading
Personal Weather Stations






























Interactive Weather Map New forecast layout! Learn more

10-Day Weather Forecast

Advertisements
Track Severe Weather on mobile